Time;durP1;ratioP1;P1;durP2;ratioP2;P2;SDS_P1;SDS_P2;PMS_P1;PMS_P2;Temp;Humidity;BMP_temperature;BMP_pressure;BME280_temperature;BME280_humidity;BME280_pressure;Samples;Min_cycle;Max_cycle;Signal;HPM_P1;HPM_P2
2023/10/03 00:04:59;;;;;;;11.55;6.82;;;;;;;20.41;55.58;96895.34;10278925;28;20053;-27
2023/10/03 00:10:00;;;;;;;10.75;6.45;;;;;;;20.42;55.45;96895.34;10282937;28;20043;-26
2023/10/03 00:15:01;;;;;;;11.47;7.23;;;;;;;20.40;55.47;96889.41;10288158;28;20045;-26
2023/10/03 00:20:04;;;;;;;10.43;6.25;;;;;;;20.42;55.30;96897.03;10288649;28;20038;-26
2023/10/03 00:25:17;;;;;;;9.82;5.85;;;;;;;20.41;55.34;96890.28;10287467;28;20046;-26
2023/10/03 00:30:19;;;;;;;10.63;6.30;;;;;;;20.40;55.35;96889.41;10275079;28;20026;-27
2023/10/03 00:35:20;;;;;;;10.27;6.15;;;;;;;20.38;55.32;96880.13;10284032;28;20046;-26
2023/10/03 00:45:26;;;;;;;9.23;6.47;;;;;;;20.42;55.49;96880.97;10278936;28;20038;-27
2023/10/03 00:50:28;;;;;;;9.73;5.75;;;;;;;20.41;55.29;96887.72;10284570;28;20038;-27
2023/10/03 00:55:29;;;;;;;10.07;6.18;;;;;;;20.40;55.15;96879.22;10284010;28;20050;-26
2023/10/03 01:00:31;;;;;;;9.75;6.20;;;;;;;20.41;55.20;96880.09;10282657;28;20143;-26
2023/10/03 01:05:33;;;;;;;10.57;5.78;;;;;;;20.42;55.29;96883.50;10281318;28;20034;-26
2023/10/03 01:10:33;;;;;;;9.45;5.97;;;;;;;20.40;55.22;96874.16;10283226;28;20035;-26
2023/10/03 01:15:35;;;;;;;9.43;6.25;;;;;;;20.42;55.11;96865.69;10281270;28;20041;-26
2023/10/03 01:20:41;;;;;;;12.07;6.57;;;;;;;20.40;55.11;96871.59;10281082;28;20027;-26
2023/10/03 01:25:43;;;;;;;8.45;5.57;;;;;;;20.38;55.31;96861.47;10272629;28;20386;-26
2023/10/03 01:30:43;;;;;;;8.55;5.82;;;;;;;20.39;55.15;96867.38;10281076;28;20148;-26
2023/10/03 01:35:44;;;;;;;9.25;5.85;;;;;;;20.39;55.21;96859.75;10281755;28;20479;-26
2023/10/03 01:40:49;;;;;;;9.00;5.77;;;;;;;20.36;55.47;96851.28;10282919;28;20101;-26
2023/10/03 01:45:53;;;;;;;9.27;6.00;;;;;;;20.39;55.25;96853.84;10289018;28;20043;-27
2023/10/03 01:50:53;;;;;;;10.10;6.03;;;;;;;20.39;55.16;96847.03;10288284;28;20066;-26
2023/10/03 01:55:53;;;;;;;9.73;6.10;;;;;;;20.40;55.35;96843.63;10280093;28;20043;-29
2023/10/03 02:00:54;;;;;;;7.10;4.53;;;;;;;20.40;55.27;96837.72;10278896;28;20393;-26
2023/10/03 02:05:55;;;;;;;8.97;5.77;;;;;;;20.40;55.08;96845.34;10289681;28;20296;-26
2023/10/03 02:10:56;;;;;;;8.02;5.85;;;;;;;20.40;55.17;96847.88;10284050;28;20501;-26
2023/10/03 02:15:58;;;;;;;10.00;5.50;;;;;;;20.40;55.38;96841.09;10275569;28;20117;-26
2023/10/03 02:21:01;;;;;;;7.10;4.97;;;;;;;20.38;55.13;96842.81;10291329;28;20031;-27
2023/10/03 02:26:10;;;;;;;7.75;5.45;;;;;;;20.39;55.38;96847.03;10294139;28;20035;-25
2023/10/03 02:31:11;;;;;;;9.23;5.75;;;;;;;20.39;55.57;96841.94;10283410;28;20050;-26
2023/10/03 02:36:11;;;;;;;8.38;5.65;;;;;;;20.38;55.32;96847.88;10291640;28;20050;-26
2023/10/03 02:41:12;;;;;;;9.55;5.78;;;;;;;20.39;55.45;96836.88;10287306;28;20027;-27
2023/10/03 02:46:14;;;;;;;9.10;5.05;;;;;;;20.38;55.40;96843.66;10281373;28;20133;-26
2023/10/03 02:51:23;;;;;;;7.47;5.47;;;;;;;20.39;55.60;96841.94;10294559;28;20027;-26
2023/10/03 02:56:23;;;;;;;7.75;5.18;;;;;;;20.39;55.19;96836.88;10283828;28;20112;-26
2023/10/03 03:01:24;;;;;;;7.07;5.03;;;;;;;20.40;55.56;96846.19;10282579;28;20089;-26
2023/10/03 03:06:26;;;;;;;10.48;5.70;;;;;;;20.39;55.20;96841.94;10280719;28;20055;-26
2023/10/03 03:11:28;;;;;;;8.25;5.10;;;;;;;20.38;55.38;96844.53;10290873;28;20031;-27
2023/10/03 03:16:28;;;;;;;8.57;5.78;;;;;;;20.39;54.96;96841.13;10279321;28;20055;-26
2023/10/03 03:21:32;;;;;;;6.27;4.70;;;;;;;20.31;55.24;96831.81;10281284;28;20034;-26
2023/10/03 03:26:39;;;;;;;7.95;5.45;;;;;;;20.32;55.36;96843.69;10285181;28;20043;-26
2023/10/03 03:31:42;;;;;;;8.15;5.20;;;;;;;20.29;55.26;96836.94;10282363;28;20050;-25
2023/10/03 03:36:46;;;;;;;8.13;4.75;;;;;;;20.27;55.00;96840.34;10280040;28;20054;-26
2023/10/03 03:41:48;;;;;;;7.78;5.55;;;;;;;20.33;55.17;96836.06;10290754;28;20042;-26
2023/10/03 03:46:49;;;;;;;9.48;5.13;;;;;;;20.33;55.05;96825.06;10282929;28;20478;-27
2023/10/03 03:51:50;;;;;;;9.53;5.60;;;;;;;20.36;54.88;96830.94;10288766;28;20071;-26
2023/10/03 03:56:51;;;;;;;7.00;4.57;;;;;;;20.34;54.92;96836.91;10284119;28;20043;-27
2023/10/03 04:01:51;;;;;;;7.90;4.83;;;;;;;20.26;54.97;96819.13;10283372;28;20039;-25
2023/10/03 04:06:52;;;;;;;7.65;5.63;;;;;;;20.28;54.99;96831.84;10279976;28;20549;-26
2023/10/03 04:11:52;;;;;;;8.15;5.43;;;;;;;20.32;54.98;96833.50;10287480;28;20031;-27
2023/10/03 04:16:53;;;;;;;7.70;5.43;;;;;;;20.33;54.89;96825.88;10288706;28;20093;-25
2023/10/03 04:21:54;;;;;;;7.30;5.13;;;;;;;20.35;54.82;96821.63;10288116;28;20486;-27
2023/10/03 04:26:57;;;;;;;7.88;4.80;;;;;;;20.37;54.92;96824.19;10281066;28;20034;-26
2023/10/03 04:31:57;;;;;;;7.45;5.32;;;;;;;20.33;54.88;96823.34;10272836;28;20018;-26
2023/10/03 04:36:58;;;;;;;8.07;4.97;;;;;;;20.35;54.80;96821.63;10279767;28;20034;-26
2023/10/03 04:41:59;;;;;;;7.78;5.00;;;;;;;20.34;54.98;96822.50;10277936;28;20062;-27
2023/10/03 04:47:00;;;;;;;8.23;5.57;;;;;;;20.35;54.93;96826.72;10287439;28;20098;-25
2023/10/03 04:52:00;;;;;;;6.78;4.55;;;;;;;20.35;55.01;96824.16;10272685;28;20498;-26
2023/10/03 04:57:00;;;;;;;7.27;4.87;;;;;;;20.35;55.00;96838.59;10279604;28;20486;-27
2023/10/03 05:02:01;;;;;;;8.03;4.80;;;;;;;20.35;55.10;96836.88;10277411;28;20031;-27
2023/10/03 05:07:02;;;;;;;6.63;4.45;;;;;;;20.36;54.88;96837.75;10285519;28;20022;-26
2023/10/03 05:12:04;;;;;;;8.95;5.05;;;;;;;20.35;55.02;96829.25;10276751;28;20031;-27
2023/10/03 05:17:05;;;;;;;6.68;4.53;;;;;;;20.33;54.91;96851.31;10281387;28;20401;-27
2023/10/03 05:22:08;;;;;;;6.13;4.60;;;;;;;20.35;54.92;96843.69;10281425;28;20039;-25
2023/10/03 05:27:09;;;;;;;8.00;5.22;;;;;;;20.34;55.13;96842.81;10279822;28;20045;-26
2023/10/03 05:32:10;;;;;;;7.38;4.50;;;;;;;20.34;54.96;96842.00;10274689;28;20049;-27
2023/10/03 05:37:10;;;;;;;6.93;4.97;;;;;;;20.37;55.18;96841.97;10278365;28;20035;-26
2023/10/03 05:42:11;;;;;;;5.90;4.53;;;;;;;20.30;55.10;96840.31;10281168;28;20038;-27
2023/10/03 05:47:12;;;;;;;8.83;4.67;;;;;;;20.30;55.14;96840.31;10282770;28;20031;-26
2023/10/03 05:52:12;;;;;;;7.50;4.50;;;;;;;20.35;55.29;96859.78;10277570;28;20478;-25
2023/10/03 05:57:13;;;;;;;7.53;4.77;;;;;;;20.34;55.44;96859.81;10270618;28;20035;-26
2023/10/03 06:02:13;;;;;;;8.30;4.67;;;;;;;20.30;55.37;96847.94;10280627;28;20182;-26
2023/10/03 06:07:13;;;;;;;7.30;4.90;;;;;;;20.34;55.16;96867.44;10285926;28;20525;-26
2023/10/03 06:12:14;;;;;;;6.00;4.03;;;;;;;20.33;55.12;96871.66;10279759;28;20034;-26
2023/10/03 06:17:17;;;;;;;6.47;4.20;;;;;;;20.32;55.06;96858.94;10271783;28;20035;-26
2023/10/03 06:22:18;;;;;;;7.15;4.57;;;;;;;20.28;55.19;96864.91;10283183;28;20401;-26
2023/10/03 06:27:18;;;;;;;8.63;4.10;;;;;;;20.26;55.05;96871.72;10284638;28;20031;-27
2023/10/03 06:32:19;;;;;;;7.18;4.60;;;;;;;20.25;54.90;96883.56;10285114;28;20031;-27
2023/10/03 06:37:19;;;;;;;7.63;4.83;;;;;;;20.16;55.09;96877.66;10277548;28;20035;-27
2023/10/03 06:42:19;;;;;;;6.40;4.25;;;;;;;20.28;54.97;96882.72;10284921;28;20301;-26
2023/10/03 06:47:23;;;;;;;8.43;4.80;;;;;;;20.19;55.61;96862.41;10284273;28;20042;-25
2023/10/03 06:52:26;;;;;;;8.45;5.47;;;;;;;20.30;55.48;96881.00;10280502;28;20027;-26
2023/10/03 06:57:26;;;;;;;6.65;4.30;;;;;;;20.24;55.48;96863.22;10282933;28;20129;-26
2023/10/03 07:02:26;;;;;;;5.67;3.97;;;;;;;20.31;55.31;96877.59;10280350;28;20065;-26
2023/10/03 07:07:27;;;;;;;6.63;4.47;;;;;;;20.31;55.65;96882.69;10288421;28;20043;-26
2023/10/03 07:12:29;;;;;;;6.70;4.17;;;;;;;20.30;55.44;96871.69;10284672;28;20142;-26
2023/10/03 07:17:29;;;;;;;8.00;4.30;;;;;;;20.34;55.16;96880.16;10290738;28;20054;-27
2023/10/03 07:22:30;;;;;;;8.57;4.67;;;;;;;20.32;55.43;96872.50;10287943;28;20413;-26
2023/10/03 07:27:31;;;;;;;8.07;3.80;;;;;;;20.33;55.58;96876.75;10287944;28;20416;-25
2023/10/03 07:32:34;;;;;;;6.67;4.07;;;;;;;20.38;55.01;96886.03;10290814;28;20690;-27
2023/10/03 07:37:35;;;;;;;6.88;3.90;;;;;;;20.38;55.49;96884.34;10281428;28;20292;-26
2023/10/03 07:42:39;;;;;;;7.75;4.20;;;;;;;20.39;55.47;96887.72;10277523;28;20047;-26
2023/10/03 07:47:41;;;;;;;7.00;3.70;;;;;;;20.42;55.48;96891.13;10285797;28;20033;-27
2023/10/03 07:52:44;;;;;;;5.95;3.40;;;;;;;20.47;54.62;96880.06;10289329;28;20030;-27
2023/10/03 07:57:46;;;;;;;5.60;4.10;;;;;;;20.43;55.41;96893.63;10282377;28;20487;-26
2023/10/03 08:02:49;;;;;;;33.15;5.85;;;;;;;20.36;55.61;96901.31;10279079;28;20506;-26
2023/10/03 08:07:50;;;;;;;24.25;4.57;;;;;;;20.43;55.84;96917.38;10286408;28;20046;-26
2023/10/03 08:12:52;;;;;;;13.27;5.00;;;;;;;20.44;55.84;96911.44;10289653;28;20027;-27
2023/10/03 08:17:57;;;;;;;10.48;4.38;;;;;;;20.42;55.98;96908.06;10276544;28;20501;-27
2023/10/03 08:23:03;;;;;;;10.85;4.65;;;;;;;20.45;56.21;96912.31;10279334;28;20453;-26
2023/10/03 08:28:09;;;;;;;16.30;4.53;;;;;;;20.43;55.54;96894.50;10282047;28;20074;-27
2023/10/03 08:33:16;;;;;;;10.45;4.60;;;;;;;20.43;55.18;96906.34;10288307;28;20060;-27
2023/10/03 08:38:19;;;;;;;12.23;4.30;;;;;;;20.45;55.21;96908.03;10285657;28;20041;-27
2023/10/03 08:43:25;;;;;;;13.65;5.35;;;;;;;20.47;54.84;96906.34;10286211;28;20038;-26
2023/10/03 08:48:30;;;;;;;9.48;5.47;;;;;;;20.48;54.71;96908.03;10285894;28;20516;-27
2023/10/03 08:53:31;;;;;;;7.88;4.90;;;;;;;20.50;54.62;96930.91;10274916;28;20122;-26
2023/10/03 08:58:32;;;;;;;9.73;4.95;;;;;;;20.45;54.46;96922.47;10286454;28;20658;-26
2023/10/03 09:03:47;;;;;;;8.00;5.70;;;;;;;20.51;54.55;96933.47;10287090;28;20429;-26
2023/10/03 09:09:09;;;;;;;13.23;8.30;;;;;;;20.52;54.87;96936.84;10284241;28;20047;-27
2023/10/03 09:14:19;;;;;;;19.95;7.18;;;;;;;20.55;55.52;96942.75;10285928;28;20031;-27
2023/10/03 09:19:23;;;;;;;15.80;5.85;;;;;;;20.53;55.28;96944.47;10283658;28;20037;-26
2023/10/03 09:24:25;;;;;;;7.80;4.45;;;;;;;20.56;55.00;96953.78;10278640;28;20082;-26
2023/10/03 09:29:32;;;;;;;38.90;6.05;;;;;;;20.64;58.32;96942.72;10285580;28;20050;-27
2023/10/03 09:34:33;;;;;;;26.65;6.35;;;;;;;20.69;59.55;96942.69;10275523;28;21462;-25
2023/10/03 09:39:50;;;;;;;20.02;6.88;;;;;;;20.60;56.65;96935.09;10281493;28;20042;-27
2023/10/03 09:44:57;;;;;;;15.10;4.97;;;;;;;20.62;56.45;96933.41;10278328;28;20050;-27
2023/10/03 09:50:03;;;;;;;11.25;4.53;;;;;;;20.74;58.61;96931.66;10276618;28;20114;-27
2023/10/03 09:55:22;;;;;;;;;;;;;;;20.69;56.97;96932.50;10284814;28;20398;-27
2023/10/03 10:00:38;;;;;;;10.15;4.25;;;;;;;20.64;56.12;96927.44;10283818;28;19921;-26
2023/10/03 10:05:50;;;;;;;9.38;4.38;;;;;;;20.63;56.08;96935.94;10280393;28;20505;-27
2023/10/03 10:11:07;;;;;;;10.60;4.28;;;;;;;20.62;56.17;96931.69;10277242;28;20046;-26
2023/10/03 10:16:07;;;;;;;7.20;4.32;;;;;;;20.60;55.75;96923.25;10278926;28;20033;-25
2023/10/03 10:21:23;;;;;;;11.40;4.23;;;;;;;20.61;55.88;96934.25;10261552;28;20382;-26
2023/10/03 10:26:29;;;;;;;11.87;5.00;;;;;;;20.59;56.10;96936.81;10280597;28;20580;-27
2023/10/03 10:31:44;;;;;;;8.50;4.28;;;;;;;20.58;55.96;96952.94;10278791;28;20035;-28
2023/10/03 10:37:01;;;;;;;12.05;3.90;;;;;;;20.58;55.99;96944.44;10272837;28;20039;-27
2023/10/03 10:42:09;;;;;;;7.32;4.15;;;;;;;20.58;56.03;96960.56;10278754;28;20436;-27
2023/10/03 10:47:10;;;;;;;8.15;3.75;;;;;;;20.57;56.04;96958.84;10282843;28;20034;-27
2023/10/03 10:52:10;;;;;;;10.52;4.40;;;;;;;20.57;56.10;96971.56;10282509;28;20378;-27
2023/10/03 10:57:14;;;;;;;8.53;4.47;;;;;;;20.58;56.16;96980.91;10292187;28;20058;-27
2023/10/03 11:02:28;;;;;;;8.57;3.40;;;;;;;20.56;56.18;96987.69;10288970;28;20305;-27
2023/10/03 11:07:31;;;;;;;11.20;3.58;;;;;;;20.56;56.02;96986.84;10291008;28;20097;-27
2023/10/03 11:12:31;;;;;;;9.05;3.67;;;;;;;20.58;56.05;96980.06;10290062;28;20593;-26
2023/10/03 11:17:33;;;;;;;7.27;3.73;;;;;;;20.57;55.99;96981.75;10286377;28;20039;-27
2023/10/03 11:22:33;;;;;;;4.57;3.63;;;;;;;20.54;56.09;96958.88;10281294;28;20129;-27
2023/10/03 11:27:34;;;;;;;5.78;3.95;;;;;;;20.57;56.06;96958.03;10285094;28;20133;-28
2023/10/03 11:32:35;;;;;;;11.07;3.90;;;;;;;20.56;56.15;96948.69;10287816;28;20033;-27
2023/10/03 11:37:41;;;;;;;9.70;3.53;;;;;;;20.55;56.27;96950.38;10288379;28;20502;-27
2023/10/03 11:42:58;;;;;;;7.07;3.13;;;;;;;20.57;56.35;96945.31;10288556;28;20133;-27
2023/10/03 11:47:59;;;;;;;4.82;3.47;;;;;;;20.55;56.08;96927.50;10279851;28;20041;-27
2023/10/03 11:53:00;;;;;;;8.77;3.65;;;;;;;20.56;56.26;96931.72;10289437;28;20041;-26
2023/10/03 11:58:01;;;;;;;5.22;3.22;;;;;;;20.47;56.52;96929.22;10286210;28;20039;-27
2023/10/03 12:03:05;;;;;;;7.63;3.65;;;;;;;20.55;56.20;96947.84;10289058;28;20039;-26
2023/10/03 12:08:06;;;;;;;5.50;3.67;;;;;;;20.52;55.75;96932.59;10283771;28;20086;-27
2023/10/03 12:13:09;;;;;;;9.20;3.60;;;;;;;20.55;56.37;96950.38;10274876;28;20461;-27
2023/10/03 12:18:09;;;;;;;8.95;3.35;;;;;;;20.56;56.16;96957.16;10288772;28;20101;-27
2023/10/03 12:23:10;;;;;;;7.55;3.80;;;;;;;20.57;56.11;96958.03;10273615;28;20039;-26
2023/10/03 12:28:10;;;;;;;9.47;3.67;;;;;;;20.54;56.39;96963.97;10288953;28;20137;-27
2023/10/03 12:33:16;;;;;;;6.17;3.50;;;;;;;20.55;56.15;96968.19;10286305;28;20046;-28
2023/10/03 12:38:16;;;;;;;6.47;3.10;;;;;;;20.56;56.25;96991.94;10282601;28;20290;-27
2023/10/03 12:43:16;;;;;;;4.32;3.30;;;;;;;20.54;56.15;96991.13;10288501;28;20489;-26
2023/10/03 12:48:17;;;;;;;5.33;3.17;;;;;;;20.55;56.39;97001.25;10274616;28;20560;-27
2023/10/03 12:53:17;;;;;;;5.07;3.55;;;;;;;20.54;56.08;97007.22;10284668;28;20042;-27
2023/10/03 12:58:19;;;;;;;4.32;3.20;;;;;;;20.56;56.27;97009.75;10287748;28;20062;-27
2023/10/03 13:03:19;;;;;;;5.07;3.33;;;;;;;20.55;56.08;97026.69;10280565;28;20031;-27
2023/10/03 13:08:20;;;;;;;5.20;3.47;;;;;;;20.55;56.32;97025.88;10286563;28;20089;-27
2023/10/03 13:13:24;;;;;;;5.00;3.50;;;;;;;20.54;56.29;97045.38;10286634;28;20290;-26
2023/10/03 13:18:24;;;;;;;5.47;3.08;;;;;;;20.54;56.04;97060.63;10279096;28;20173;-27
2023/10/03 13:23:25;;;;;;;3.60;2.57;;;;;;;20.54;56.22;97060.63;10274971;28;20065;-27
2023/10/03 13:28:25;;;;;;;5.43;3.28;;;;;;;20.54;56.09;97065.72;10284535;28;20041;-27
2023/10/03 13:33:28;;;;;;;5.25;2.95;;;;;;;20.55;56.31;97072.50;10274835;28;20410;-26
2023/10/03 13:38:29;;;;;;;4.97;3.00;;;;;;;20.55;56.30;97071.66;10281998;28;20035;-27
2023/10/03 13:43:30;;;;;;;6.32;3.50;;;;;;;20.53;56.01;97053.84;10286298;28;20066;-27
2023/10/03 13:48:30;;;;;;;3.88;2.83;;;;;;;20.55;56.24;97061.50;10278427;28;20113;-26
2023/10/03 13:53:31;;;;;;;3.93;3.03;;;;;;;20.55;56.18;97066.56;10282192;28;20038;-27
2023/10/03 13:58:31;;;;;;;4.93;2.70;;;;;;;20.53;56.29;97063.16;10279081;28;20030;-28
2023/10/03 14:03:33;;;;;;;4.50;3.30;;;;;;;20.51;56.26;97060.66;10285550;28;20035;-27
2023/10/03 14:08:33;;;;;;;3.83;2.85;;;;;;;20.54;56.34;97063.16;10285115;28;20050;-27
2023/10/03 14:13:33;;;;;;;3.93;2.80;;;;;;;20.53;56.36;97074.19;10286611;28;20042;-26
2023/10/03 14:18:34;;;;;;;5.20;3.33;;;;;;;20.54;56.16;97083.53;10293811;28;20047;-27
2023/10/03 14:23:35;;;;;;;4.28;2.95;;;;;;;20.55;56.38;97089.47;10287646;28;20408;-27
2023/10/03 14:28:35;;;;;;;4.10;3.20;;;;;;;20.54;56.14;97083.53;10288774;28;20053;-27
2023/10/03 14:33:36;;;;;;;5.15;2.35;;;;;;;20.53;56.31;97074.19;10284925;28;20035;-26
2023/10/03 14:38:37;;;;;;;4.20;2.60;;;;;;;20.53;56.21;97084.38;10287807;28;20038;-27
2023/10/03 14:43:40;;;;;;;3.10;2.65;;;;;;;20.54;56.21;97093.69;10292278;28;20042;-27
2023/10/03 14:48:40;;;;;;;4.72;3.00;;;;;;;20.53;56.19;97083.50;10281357;28;20469;-27
2023/10/03 14:53:41;;;;;;;3.90;2.83;;;;;;;20.52;56.19;97095.41;10286893;28;20126;-27
2023/10/03 14:58:42;;;;;;;3.28;2.42;;;;;;;20.53;56.23;97079.28;10281469;28;20046;-27
2023/10/03 15:03:42;;;;;;;4.03;2.97;;;;;;;20.53;56.24;97078.44;10285408;28;20042;-27
2023/10/03 15:08:43;;;;;;;3.07;2.37;;;;;;;20.52;56.23;97080.16;10287190;28;20035;-27
2023/10/03 15:13:44;;;;;;;4.07;2.72;;;;;;;20.52;56.19;97092.88;10284518;28;20030;-27
2023/10/03 15:18:44;;;;;;;4.13;2.53;;;;;;;20.54;56.14;97105.59;10291410;28;20497;-27
2023/10/03 15:23:45;;;;;;;4.53;2.77;;;;;;;20.55;56.29;97120.81;10277655;28;20073;-27
2023/10/03 15:28:45;;;;;;;4.20;2.60;;;;;;;20.55;56.67;97120.81;10282618;28;20382;-27
2023/10/03 15:33:45;;;;;;;5.55;2.78;;;;;;;20.58;56.59;97143.75;10274922;28;20066;-26
2023/10/03 15:38:46;;;;;;;7.03;2.90;;;;;;;20.51;57.49;97176.78;10281097;28;20521;-27
2023/10/03 15:43:46;;;;;;;13.17;3.73;;;;;;;20.50;57.21;97170.88;10277273;28;20453;-27
2023/10/03 15:48:47;;;;;;;7.53;3.73;;;;;;;20.50;56.73;97181.06;10284046;28;20493;-27
2023/10/03 15:53:47;;;;;;;4.55;2.78;;;;;;;20.55;56.75;97207.31;10281307;28;20563;-27
2023/10/03 15:58:50;;;;;;;9.20;3.13;;;;;;;20.55;57.35;97222.59;10276796;28;20050;-28
2023/10/03 16:03:52;;;;;;;5.18;3.00;;;;;;;20.59;57.09;97238.69;10283929;28;20410;-27
2023/10/03 16:08:53;;;;;;;6.38;2.90;;;;;;;20.55;56.09;97255.66;10285521;28;20042;-27
2023/10/03 16:13:53;;;;;;;6.40;3.17;;;;;;;20.53;55.99;97282.78;10277344;28;20026;-27
2023/10/03 16:18:54;;;;;;;14.17;3.50;;;;;;;20.52;59.04;97357.44;10285604;28;20371;-27
2023/10/03 16:23:54;;;;;;;9.45;4.18;;;;;;;20.55;56.21;97397.28;10269362;28;20042;-27
2023/10/03 16:28:56;;;;;;;13.05;3.38;;;;;;;20.53;55.69;97422.72;10284874;28;20039;-27
2023/10/03 16:33:57;;;;;;;6.45;3.08;;;;;;;20.52;55.73;97433.75;10286433;28;20081;-27
2023/10/03 16:38:57;;;;;;;4.85;2.92;;;;;;;20.50;55.81;97465.97;10287079;28;20031;-27
2023/10/03 16:43:58;;;;;;;9.25;3.15;;;;;;;20.52;56.08;97474.44;10278034;28;20035;-27
2023/10/03 16:49:01;;;;;;;7.13;2.60;;;;;;;20.53;55.99;97503.25;10282858;28;20023;-27
2023/10/03 16:54:03;;;;;;;6.38;3.40;;;;;;;20.52;55.90;97510.06;10280573;28;20482;-27
2023/10/03 16:59:04;;;;;;;8.63;2.92;;;;;;;20.52;56.20;97540.59;10281933;28;20461;-27
2023/10/03 17:04:04;;;;;;;5.32;2.50;;;;;;;20.52;56.06;97547.34;10279591;28;20462;-27
2023/10/03 17:09:08;;;;;;;6.20;2.55;;;;;;;20.52;56.08;97549.91;10285846;28;20077;-27
2023/10/03 17:14:08;;;;;;;5.20;2.85;;;;;;;20.50;55.94;97552.47;10283198;28;20406;-27
2023/10/03 17:19:09;;;;;;;7.38;3.05;;;;;;;20.50;56.22;97561.78;10278308;28;20031;-26
2023/10/03 17:24:09;;;;;;;7.17;2.57;;;;;;;20.55;56.53;97567.75;10284581;28;20049;-27
2023/10/03 17:29:13;;;;;;;5.10;2.65;;;;;;;20.50;56.05;97571.94;10274479;28;20298;-26
2023/10/03 17:34:14;;;;;;;7.03;2.63;;;;;;;20.53;56.34;97593.16;10275001;28;20049;-27
2023/10/03 17:39:15;;;;;;;7.85;2.50;;;;;;;20.52;56.18;97603.34;10279004;28;20576;-27
2023/10/03 17:44:17;;;;;;;7.40;2.42;;;;;;;20.51;55.90;97596.53;10278730;28;20041;-30
2023/10/03 17:49:20;;;;;;;4.47;2.33;;;;;;;20.51;56.27;97594.88;10274225;28;20023;-27
2023/10/03 17:54:21;;;;;;;3.97;2.28;;;;;;;20.51;56.20;97589.78;10265052;28;20066;-27
2023/10/03 17:59:22;;;;;;;4.35;2.20;;;;;;;20.54;56.24;97588.94;10271674;28;20089;-27
2023/10/03 18:04:22;;;;;;;4.60;2.40;;;;;;;20.58;56.42;97578.78;10272067;28;20081;-27
2023/10/03 18:09:24;;;;;;;4.43;2.10;;;;;;;20.56;56.21;97583.00;10278848;28;20031;-26
2023/10/03 18:14:24;;;;;;;9.40;2.78;;;;;;;20.53;56.39;97593.16;10280616;28;20045;-26
2023/10/03 18:19:25;;;;;;;4.73;2.70;;;;;;;20.57;57.21;97594.03;10275123;28;20050;-27
2023/10/03 18:24:27;;;;;;;4.40;2.70;;;;;;;20.57;56.65;97602.50;10277283;28;20031;-27
2023/10/03 18:29:27;;;;;;;7.47;2.45;;;;;;;20.56;56.45;97621.16;10277744;28;20046;-28
2023/10/03 18:34:28;;;;;;;4.30;2.57;;;;;;;20.55;56.05;97633.91;10299515;28;20417;-27
2023/10/03 18:39:29;;;;;;;3.45;2.33;;;;;;;20.54;56.15;97643.22;10286583;28;20114;-27
2023/10/03 18:44:29;;;;;;;3.08;2.20;;;;;;;20.54;56.22;97655.09;10278479;28;20042;-26
2023/10/03 18:49:30;;;;;;;4.77;2.57;;;;;;;20.52;56.09;97660.16;10278599;28;20066;-27
2023/10/03 18:54:30;;;;;;;3.80;2.40;;;;;;;20.53;56.10;97683.91;10281450;28;20305;-27
2023/10/03 18:59:32;;;;;;;3.33;2.23;;;;;;;20.53;55.96;97689.84;10288089;28;20038;-27
2023/10/03 19:04:32;;;;;;;2.08;1.88;;;;;;;20.52;55.87;97693.25;10288451;28;20595;-27
2023/10/03 19:09:32;;;;;;;3.27;2.07;;;;;;;20.49;56.20;97698.31;10293500;28;20047;-27
2023/10/03 19:14:33;;;;;;;2.67;2.27;;;;;;;20.50;56.11;97697.47;10290740;28;20037;-27
2023/10/03 19:19:35;;;;;;;4.15;2.28;;;;;;;20.51;56.11;97706.81;10286611;28;20038;-27
2023/10/03 19:24:35;;;;;;;3.55;2.00;;;;;;;20.52;55.81;97722.91;10290882;28;20047;-27
2023/10/03 19:29:35;;;;;;;3.42;2.10;;;;;;;20.51;56.03;97718.66;10286671;28;20625;-27
2023/10/03 19:34:36;;;;;;;3.13;2.30;;;;;;;20.51;56.18;97734.78;10288273;28;20031;-27
2023/10/03 19:39:36;;;;;;;3.63;1.93;;;;;;;20.51;55.88;97741.56;10281443;28;20425;-27
2023/10/03 19:44:37;;;;;;;3.30;2.17;;;;;;;20.50;56.01;97748.34;10286315;28;20524;-27
2023/10/03 19:49:38;;;;;;;3.55;1.90;;;;;;;20.49;56.21;97753.41;10282904;28;20465;-27
2023/10/03 19:54:39;;;;;;;3.85;2.25;;;;;;;20.49;56.12;97763.59;10281550;28;20137;-27
2023/10/03 19:59:39;;;;;;;5.60;2.27;;;;;;;20.49;56.06;97767.00;10279949;28;20077;-27
2023/10/03 20:04:40;;;;;;;2.43;1.53;;;;;;;20.50;55.94;97776.34;10278033;28;20035;-27
2023/10/03 20:09:40;;;;;;;3.42;2.75;;;;;;;20.49;56.20;97776.31;10282794;28;20057;-27
2023/10/03 20:14:41;;;;;;;2.15;1.67;;;;;;;20.45;55.99;97767.81;10277752;28;20062;-27
2023/10/03 20:19:41;;;;;;;3.57;2.10;;;;;;;20.49;56.20;97789.91;10285503;28;20061;-27
2023/10/03 20:24:41;;;;;;;3.20;2.00;;;;;;;20.48;56.12;97783.09;10284192;28;20441;-27
2023/10/03 20:29:42;;;;;;;5.82;1.90;;;;;;;20.49;56.09;97794.13;10280640;28;20041;-27
2023/10/03 20:34:42;;;;;;;3.70;2.00;;;;;;;20.47;56.09;97790.72;10284766;28;20023;-27
2023/10/03 20:39:43;;;;;;;2.33;1.70;;;;;;;20.49;56.07;97800.09;10285489;28;20489;-27
2023/10/03 20:44:43;;;;;;;3.58;2.00;;;;;;;20.49;56.00;97800.09;10284134;28;20069;-27
2023/10/03 20:49:46;;;;;;;2.70;1.60;;;;;;;20.49;56.06;97807.72;10262078;28;20038;-27
2023/10/03 20:54:47;;;;;;;2.28;1.70;;;;;;;20.52;56.16;97810.28;10276158;28;20301;-27
2023/10/03 20:59:49;;;;;;;3.42;2.13;;;;;;;20.53;56.61;97801.81;10286966;28;20053;-27
2023/10/03 21:04:52;;;;;;;2.10;1.58;;;;;;;20.52;56.03;97814.50;10285745;28;20034;-27
2023/10/03 21:09:54;;;;;;;2.53;1.70;;;;;;;20.53;55.92;97814.53;10276408;28;20073;-26
2023/10/03 21:14:54;;;;;;;2.70;1.60;;;;;;;20.50;56.06;97814.50;10284217;28;20037;-28
2023/10/03 21:19:57;;;;;;;2.33;1.63;;;;;;;20.51;56.04;97823.84;10286233;28;20723;-27
2023/10/03 21:24:57;;;;;;;2.63;1.60;;;;;;;20.51;55.93;97830.59;10274822;28;20113;-27
2023/10/03 21:29:58;;;;;;;2.13;1.83;;;;;;;20.50;55.99;97839.09;10279322;28;20045;-27
2023/10/03 21:34:58;;;;;;;1.97;1.50;;;;;;;20.50;56.19;97837.41;10276521;28;20054;-27
2023/10/03 21:40:01;;;;;;;2.83;1.77;;;;;;;20.49;55.94;97830.63;10282499;28;20801;-27
2023/10/03 21:45:03;;;;;;;2.17;1.42;;;;;;;20.49;55.92;97834.84;10276136;28;20043;-26
2023/10/03 21:50:04;;;;;;;2.90;1.70;;;;;;;20.48;56.12;97844.16;10275451;28;20481;-27
2023/10/03 21:55:07;;;;;;;2.42;1.45;;;;;;;20.45;55.74;97839.03;10283262;28;20035;-27
2023/10/03 22:00:34;;;;;;;3.90;1.42;;;;;;;20.44;55.97;97837.34;10282224;28;20505;-26
2023/10/03 22:05:34;;;;;;;2.55;1.80;;;;;;;20.48;55.83;97853.50;10283101;28;20501;-28
2023/10/03 22:10:35;;;;;;;2.77;1.80;;;;;;;20.46;56.11;97843.28;10281700;28;20035;-27
2023/10/03 22:15:35;;;;;;;2.05;1.50;;;;;;;20.47;55.83;97842.44;10273748;28;20046;-27
2023/10/03 22:20:36;;;;;;;2.00;1.60;;;;;;;20.47;55.99;97831.44;10284798;28;20101;-27
2023/10/03 22:25:37;;;;;;;3.10;1.77;;;;;;;20.46;56.02;97824.66;10281161;28;20500;-27
2023/10/03 22:30:37;;;;;;;3.80;1.70;;;;;;;20.47;55.89;97834.81;10279687;28;20031;-24
2023/10/03 22:35:38;;;;;;;2.13;1.53;;;;;;;20.46;55.93;97827.19;10287382;28;20066;-23
2023/10/03 22:40:39;;;;;;;2.50;1.47;;;;;;;20.46;55.78;97830.56;10283375;28;20425;-25
2023/10/03 22:45:40;;;;;;;2.20;1.48;;;;;;;20.47;55.98;97839.06;10295560;28;20304;-25
2023/10/03 22:50:40;;;;;;;2.00;1.77;;;;;;;20.47;56.06;97834.81;10288486;28;20043;-25
2023/10/03 22:55:41;;;;;;;2.90;1.50;;;;;;;20.42;55.94;97833.94;10289488;28;20290;-25
2023/10/03 23:00:42;;;;;;;2.30;1.73;;;;;;;20.45;56.01;97836.50;10291751;28;20385;-25
2023/10/03 23:05:45;;;;;;;2.72;1.65;;;;;;;20.46;56.00;97839.91;10290426;28;20413;-25
2023/10/03 23:10:45;;;;;;;2.00;1.60;;;;;;;20.45;56.12;97828.88;10286435;28;20536;-25
2023/10/03 23:15:45;;;;;;;1.67;1.53;;;;;;;20.45;55.78;97833.13;10290907;28;20041;-25
2023/10/03 23:20:46;;;;;;;3.30;1.87;;;;;;;20.46;56.01;97830.56;10288266;28;20089;-24
2023/10/03 23:25:46;;;;;;;2.15;1.50;;;;;;;20.45;56.05;97831.41;10287995;28;20054;-25
2023/10/03 23:30:49;;;;;;;3.27;1.77;;;;;;;20.45;55.99;97828.88;10282456;28;20117;-24